• Join FlightAware (Why Join?)
  • Login
  • US Flag 
03:43PM EDT


 

Airport Tracker/Info


-or-


 

Live Flight TrackerFlight Track Log ✈ ASH3770 ✈ 03-May-2013 ✈ KPIT - KORD

Flight Track Log - Related Links

Times and Time Zones

All times are in EDT time to prevent confusion due to time zone crossing. See the ASH3770 flight status page for this flight to view local times or setup timezone preferences in your user account.

Time Position Orientation Groundspeed Altitude Reporting Facility
EDT Latitude Longitude Course Direction KTS MPH feet Rate Location/Type
09:23PM 40.5439 -80.1706 286° West 291 335 4,300  Level Cleveland Center
09:24PM 40.5699 -80.6661 285° West  Level FlightAware Approximate
09:24PM 40.5794 -80.2769 294° West 271 312 8,500  Level Cleveland Center
09:25PM 40.6061 -80.8131 291° West  Level FlightAware Approximate
09:25PM 40.5944 -80.3836 281° West 283 326 10,800  Level Cleveland Center
09:26PM 40.6403 -80.9611 288° West  Level FlightAware Approximate
09:26PM 40.6092 -80.5039 279° West 322 371 13,600  Level Cleveland Center
09:27PM 40.6690 -81.1112 286° West  Level FlightAware Approximate
09:27PM 40.6258 -80.6242 280° West 336 387 15,700  Level Cleveland Center
09:28PM 40.7006 -81.2605 286° West  Level FlightAware Approximate
09:28PM 40.6486 -80.7472 284° West 341 392 17,800  Level Cleveland Center
09:29PM 40.6672 -80.8786 281° West 352 405 19,500 1,980 Climbing Cleveland Center
09:30PM 40.6856 -81.0131 280° West 364 419 21,800 1,920 Climbing Cleveland Center
09:31PM 40.7017 -81.1444 279° West 391 450 23,400 1,500 Climbing Cleveland Center
09:32PM 40.7175 -81.2844 279° West 396 456 24,800 1,500 Climbing Cleveland Center
09:33PM 40.7392 -81.4464 280° West 401 461 26,500 1,380 Climbing Cleveland Center
09:34PM 40.7672 -81.5947 284° West 412 474 27,600 1,200 Climbing Cleveland Center
09:35PM 40.7969 -81.7461 285° West 424 488 28,900 1,380 Climbing Cleveland Center
09:36PM 40.8247 -81.9003 283° West 424 488 30,400 1,140 Climbing Cleveland Center
09:37PM 40.8539 -82.0544 284° West 434 499 31,200 1,080 Climbing Cleveland Center
09:38PM 40.8811 -82.2117 283° West 439 505 32,600 1,200 Climbing Cleveland Center
09:39PM 40.9061 -82.3497 284° West 434 499 33,600 660 Climbing Cleveland Center
09:40PM 40.9347 -82.5097 283° West 434 499 34,000 180 Climbing Cleveland Center
09:41PM 40.9611 -82.6728 282° West 447 514 34,000 300 Level Cleveland Center
09:42PM 40.9914 -82.8361 284° West 461 531 34,700 840 Climbing Cleveland Center
09:43PM 41.0211 -83.0022 283° West 461 531 35,700 600 Climbing Cleveland Center
09:44PM 41.0450 -83.1519 282° West 461 531 36,000 120 Climbing Cleveland Center
09:45PM 41.0786 -83.3294 284° West 461 531 36,000  Level Cleveland Center
09:46PM 41.1033 -83.5042 281° West 472 543 36,000  Level Cleveland Center
09:47PM 41.1322 -83.6764 283° West 472 543 36,000  Level Cleveland Center
09:48PM 41.1608 -83.8489 282° West 472 543 36,000  Level Cleveland Center
09:49PM 41.1914 -84.0158 284° West 472 543 36,000  Level Cleveland Center
09:50PM 41.2211 -84.2133 281° West 476 548 36,000 -240 Level Chicago Center
09:51PM 41.2278 -84.3886 273° West 476 548 35,500 -960 Descending Chicago Center
09:52PM 41.2322 -84.5631 272° West 474 545 34,100 -780 Descending Chicago Center
09:53PM 41.2372 -84.7358 272° West 470 541 34,000 -60 Descending Chicago Center
09:54PM 41.2431 -84.9081 273° West 469 540 34,000 -300 Level Chicago Center
09:55PM 41.2322 -85.0619 265° West 433 498 33,400 -840 Descending Chicago Center
09:56PM 41.2017 -85.2186 256° West 434 499 32,400 -720 Descending Chicago Center
09:57PM 41.1686 -85.3731 254° West 434 499 32,000 -240 Descending Chicago Center
09:58PM 41.1331 -85.5611 256° West 436 502 32,000  Level Chicago Center
09:59PM 41.1069 -85.7161 257° West 432 497 32,000 -1,320 Level Chicago Center
10:00PM 41.1208 -85.8653 277° West 427 491 29,300 -3,240 Descending Chicago Center
10:01PM 41.2150 -85.9642 322° Northwest 432 497 25,400 -2,100 Descending Chicago Center
10:02PM 41.2797 -86.0925 304° West 453 521 25,000 -900 Descending Chicago Center
10:03PM 41.2825 -86.2558 271° West 447 514 23,600 -1,560 Descending Chicago Center
10:04PM 41.2833 -86.4194 270° West 444 511 21,900 -1,680 Descending Chicago Center
10:05PM 41.2858 -86.5786 271° West 436 502 20,200 -1,980 Descending Chicago Center
10:06PM 41.3125 -86.7567 281° West 411 473 17,900 -2,100 Descending Chicago Center
10:07PM 41.3786 -86.8797 306° West 419 482 15,900 -1,980 Descending Chicago Center
10:08PM 41.4483 -86.9950 309° West 407 468 13,900 -1,980 Descending Chicago Center
10:09PM 41.5178 -87.1081 309° West 400 460 11,900 -1,620 Descending Chicago Center
10:10PM 41.5833 -87.2167 309° West 365 420 10,900 -480 Descending Chicago TRACON
10:11PM 41.6333 -87.3167 304° West 321 369 11,000  Climbing Chicago TRACON
10:12PM 41.6833 -87.4000 309° West 304 350 11,000 -180 Level Chicago TRACON
10:13PM 41.7333 -87.5000 304° West 310 357 10,700 -960 Descending Chicago TRACON
10:14PM 41.7833 -87.6000 304° West 308 354 9,000 -1,560 Descending Chicago TRACON
10:15PM 41.8333 -87.6833 309° West 302 348 7,600 -960 Descending Chicago TRACON
10:16PM 41.8667 -87.7833 294° West 260 299 7,100 -300 Descending Chicago TRACON
10:17PM 41.8667 -87.8667 270° West 217 250 7,000 -60 Descending Chicago TRACON
10:18PM 41.8500 -87.9333 251° West 210 242 7,000 -480 Level Chicago TRACON
10:19PM 41.8167 -87.9667 217° Southwest 179 206 6,200 -1,140 Descending Chicago TRACON
10:19PM 41.7914 -87.9753 194° South 182 209 5,600 -1,620 Descending Chicago Center
10:20PM 41.7931 -88.0408 272° West 211 243 4,000 -900 Descending Chicago Center
10:21PM 41.8411 -88.0369 North 202 232 3,800 -660 Descending Chicago Center
10:22PM 41.8747 -87.9917 45° Northeast 182 209 2,700 -1,020 Descending Chicago Center
10:23PM 41.9000 -87.9667 36° Northeast 160 184 2,100 -840 Descending Chicago TRACON
10:24PM 41.9333 -87.9333 37° Northeast 116 133 1,300 -840 Descending Chicago TRACON
10:27PM 41.9667 -87.9000 18° North  Level FlightAware Approximate